Costa Luminosa — ICGU — position and weather

sailwx.info

Track history (hours):
 
Tides and Currents Weather Stations Pressure Air Temp Water Temp Dewpoint Dewpoint Depression Visibility Wind Speed Wind Dir Waves Ship Positions

Costa Luminosa

Last reported at 2014-Aug-20 21:34 UTC. Time now 2014-Aug-20 22:27 UTC.
Position N 60°06' E 027°27'.

Length 294 m; draft 8.1 m.

Type: Passenger vessel. MMSI: 247257900.

Date/timePositionNaut miles runAvg speedWind from/ knotsBaromVisibWave heightAir tempDewpointWater temp
2014-Aug-20 21:34N 60°06' E 027°27'8013.2
2014-Aug-20 15:32N 59°56' E 030°05'3 0.2
2014-Aug-20 02:33N 59°57' E 030°11'7 6.9
2014-Aug-20 01:31N 59°56' E 029°57'7313.6
2014-Aug-19 20:09N 60°07' E 027°32'1118.5
2014-Aug-19 19:33N 60°01' E 027°14'1817.8
2014-Aug-19 18:33N 59°59' E 026°38'1818.3
2014-Aug-19 17:33N 59°55' E 026°03'2217.8
2014-Aug-19 16:21N 59°56' E 025°20'1515.8
2014-Aug-19 15:23N 60°03' E 024°54'6 7.3
2014-Aug-19 14:33N 60°09' E 024°55'0 0.0
2014-Aug-19 13:33N 60°09' E 024°55'0 0.0
2014-Aug-19 12:33N 60°09' E 024°55'0 0.0
2014-Aug-19 11:33N 60°09' E 024°55'0 0.0
2014-Aug-19 10:33N 60°09' E 024°55'0 0.0
2014-Aug-19 09:32N 60°09' E 024°55'0 0.0
2014-Aug-19 08:26N 60°09' E 024°55'0 0.0
2014-Aug-19 07:32N 60°09' E 024°55'0 0.0
2014-Aug-19 06:32N 60°09' E 024°55'0 0.0
2014-Aug-19 05:32N 60°09' E 024°55'5 4.9
2014-Aug-19 04:33N 60°04' E 024°53'3115.1
2014-Aug-19 02:32N 59°41' E 024°13'2121.1
2014-Aug-19 01:33N 59°36' E 023°34'2721.1
2014-Aug-19 00:18N 59°27' E 022°44'198 5.3
2014-Aug-17 10:33N 57°25' E 017°46'1313.1
2014-Aug-17 09:33N 57°13' E 017°37'1313.2
2014-Aug-17 08:33N 57°00' E 017°29'7114.2
2014-Aug-17 03:33N 55°57' E 016°29'2016.7
2014-Aug-17 02:23N 55°47' E 015°60'1416.6
2014-Aug-17 01:33N 55°40' E 015°38'1716.7
2014-Aug-17 00:33N 55°34' E 015°11'1616.4
2014-Aug-16 23:33N 55°26' E 014°46'1616.5
2014-Aug-16 22:33N 55°14' E 014°25'1514.8
2014-Aug-16 21:31N 55°10' E 013°59'1616.1
2014-Aug-16 20:30N 55°12' E 013°31'1516.1
2014-Aug-16 19:33N 55°14' E 013°04'1414.0
2014-Aug-16 18:33N 55°18' E 012°41'1212.5
2014-Aug-16 17:33N 55°30' E 012°42'7 6.8
2014-Aug-16 16:33N 55°37' E 012°42'7 6.5
2014-Aug-16 15:33N 55°43' E 012°38'0 0.0
2014-Aug-16 14:33N 55°43' E 012°38'0 0.0
2014-Aug-16 13:33N 55°43' E 012°38'0 0.0
2014-Aug-16 12:33N 55°43' E 012°38'0 0.0
2014-Aug-16 11:33N 55°43' E 012°38'0 0.0
2014-Aug-16 10:33N 55°43' E 012°38'0 0.0
2014-Aug-16 09:33N 55°43' E 012°38'0 0.0
2014-Aug-16 08:33N 55°43' E 012°38'0 0.0
2014-Aug-16 07:33N 55°43' E 012°38'0 0.0
2014-Aug-16 06:33N 55°43' E 012°38'1 1.2
2014-Aug-16 05:33N 55°44' E 012°39'1110.8
2014-Aug-16 04:33N 55°54' E 012°39'1211.6
2014-Aug-16 03:34N 56°06' E 012°34'1514.6
2014-Aug-16 02:34N 56°14' E 012°12'6114.8
2014-Aug-15 22:27N 57°11' E 011°33'1416.3
2014-Aug-15 21:33N 57°25' E 011°24'1616.3
2014-Aug-15 20:33N 57°40' E 011°14'1616.3
2014-Aug-15 19:33N 57°55' E 011°01'1616.2
2014-Aug-15 18:33N 58°10' E 010°50'4615.4
2014-Aug-15 15:33N 58°56' E 010°35'1313.4
2014-Aug-15 14:33N 59°09' E 010°38'1918.5
2014-Aug-15 13:33N 59°27' E 010°33'1514.8
2014-Aug-15 12:31N 59°43' E 010°35'1212.1
2014-Aug-15 11:33N 59°54' E 010°42'1 1.2
2014-Aug-15 10:33N 59°54' E 010°44'0 0.0
2014-Aug-15 09:34N 59°54' E 010°44'0 0.0
2014-Aug-15 08:34N 59°54' E 010°44'0 0.0
2014-Aug-15 07:33N 59°54' E 010°44'0 0.0
2014-Aug-15 06:34N 59°54' E 010°44'0 0.0
2014-Aug-15 05:34N 59°54' E 010°44'2211.1
2014-Aug-15 03:33N 59°32' E 010°37'1717.4
2014-Aug-15 02:33N 59°15' E 010°37'1414.0
2014-Aug-15 01:33N 59°01' E 010°34'1515.2
2014-Aug-15 00:33N 58°50' E 010°14'12715.4
2014-Aug-14 16:18N 58°01' E 006°30'1317.4
2014-Aug-14 15:33N 58°09' E 006°11'1817.7
2014-Aug-14 14:33N 58°22' E 005°47'1818.1
2014-Aug-14 13:33N 58°36' E 005°26'1615.7
2014-Aug-14 12:34N 58°52' E 005°31'1110.7
2014-Aug-14 11:33N 59°02' E 005°37'5 4.6
2014-Aug-14 10:32N 58°58' E 005°44'0 0.0
2014-Aug-14 09:32N 58°58' E 005°44'0 0.0
2014-Aug-14 08:32N 58°58' E 005°44'0 0.0
2014-Aug-14 07:32N 58°58' E 005°44'0 0.0
2014-Aug-14 06:32N 58°58' E 005°44'0 0.2
2014-Aug-14 05:33N 58°59' E 005°44'1111.5
2014-Aug-14 04:33N 59°06' E 005°27'10 9.7
2014-Aug-14 03:34N 59°02' E 005°10'86 7.5
2014-Aug-13 16:06N 60°29' E 004°60'713.3
2014-Aug-13 15:33N 60°23' E 005°10'5 4.3
2014-Aug-13 14:28N 60°24' E 005°19'0 0.0
2014-Aug-13 13:28N 60°24' E 005°19'0 0.0
2014-Aug-13 12:28N 60°24' E 005°19'0 0.0
2014-Aug-13 11:28N 60°24' E 005°19'0 0.0
2014-Aug-13 10:28N 60°24' E 005°19'0 0.0
2014-Aug-13 09:28N 60°24' E 005°19'0 0.0
2014-Aug-13 08:28N 60°24' E 005°19'0 0.0
2014-Aug-13 07:28N 60°24' E 005°19'0 0.0
2014-Aug-13 06:28N 60°24' E 005°19'0 0.0
2014-Aug-13 05:33N 60°24' E 005°19'8 7.7
2014-Aug-13 04:28N 60°26' E 005°02'  
Track history (hours):
 
Tides and Currents Weather Stations Pressure Air Temp Water Temp Dewpoint Dewpoint Depression Visibility Wind Speed Wind Dir Waves Ship Positions

Costa Luminosa

Last reported at 2014-Aug-20 21:34 UTC. Time now 2014-Aug-20 22:27 UTC.
Position N 60°06' E 027°27'.

Length 294 m; draft 8.1 m.

Type: Passenger vessel. MMSI: 247257900.

Date/timePositionNaut miles runAvg speedWind from/ knotsBaromVisibWave heightAir tempDewpointWater temp
2014-Aug-20 21:34N 60°06' E 027°27'8013.2
2014-Aug-20 15:32N 59°56' E 030°05'3 0.2
2014-Aug-20 02:33N 59°57' E 030°11'7 6.9
2014-Aug-20 01:31N 59°56' E 029°57'7313.6
2014-Aug-19 20:09N 60°07' E 027°32'1118.5
2014-Aug-19 19:33N 60°01' E 027°14'1817.8
2014-Aug-19 18:33N 59°59' E 026°38'1818.3
2014-Aug-19 17:33N 59°55' E 026°03'2217.8
2014-Aug-19 16:21N 59°56' E 025°20'1515.8
2014-Aug-19 15:23N 60°03' E 024°54'6 7.3
2014-Aug-19 14:33N 60°09' E 024°55'0 0.0
2014-Aug-19 13:33N 60°09' E 024°55'0 0.0
2014-Aug-19 12:33N 60°09' E 024°55'0 0.0
2014-Aug-19 11:33N 60°09' E 024°55'0 0.0
2014-Aug-19 10:33N 60°09' E 024°55'0 0.0
2014-Aug-19 09:32N 60°09' E 024°55'0 0.0
2014-Aug-19 08:26N 60°09' E 024°55'0 0.0
2014-Aug-19 07:32N 60°09' E 024°55'0 0.0
2014-Aug-19 06:32N 60°09' E 024°55'0 0.0
2014-Aug-19 05:32N 60°09' E 024°55'5 4.9
2014-Aug-19 04:33N 60°04' E 024°53'3115.1
2014-Aug-19 02:32N 59°41' E 024°13'2121.1
2014-Aug-19 01:33N 59°36' E 023°34'2721.1
2014-Aug-19 00:18N 59°27' E 022°44'198 5.3
2014-Aug-17 10:33N 57°25' E 017°46'1313.1
2014-Aug-17 09:33N 57°13' E 017°37'1313.2
2014-Aug-17 08:33N 57°00' E 017°29'7114.2
2014-Aug-17 03:33N 55°57' E 016°29'2016.7
2014-Aug-17 02:23N 55°47' E 015°60'1416.6
2014-Aug-17 01:33N 55°40' E 015°38'1716.7
2014-Aug-17 00:33N 55°34' E 015°11'1616.4
2014-Aug-16 23:33N 55°26' E 014°46'1616.5
2014-Aug-16 22:33N 55°14' E 014°25'1514.8
2014-Aug-16 21:31N 55°10' E 013°59'1616.1
2014-Aug-16 20:30N 55°12' E 013°31'1516.1
2014-Aug-16 19:33N 55°14' E 013°04'1414.0
2014-Aug-16 18:33N 55°18' E 012°41'1212.5
2014-Aug-16 17:33N 55°30' E 012°42'7 6.8
2014-Aug-16 16:33N 55°37' E 012°42'7 6.5
2014-Aug-16 15:33N 55°43' E 012°38'0 0.0
2014-Aug-16 14:33N 55°43' E 012°38'0 0.0
2014-Aug-16 13:33N 55°43' E 012°38'0 0.0
2014-Aug-16 12:33N 55°43' E 012°38'0 0.0
2014-Aug-16 11:33N 55°43' E 012°38'0 0.0
2014-Aug-16 10:33N 55°43' E 012°38'0 0.0
2014-Aug-16 09:33N 55°43' E 012°38'0 0.0
2014-Aug-16 08:33N 55°43' E 012°38'0 0.0
2014-Aug-16 07:33N 55°43' E 012°38'0 0.0
2014-Aug-16 06:33N 55°43' E 012°38'1 1.2
2014-Aug-16 05:33N 55°44' E 012°39'1110.8
2014-Aug-16 04:33N 55°54' E 012°39'1211.6
2014-Aug-16 03:34N 56°06' E 012°34'1514.6
2014-Aug-16 02:34N 56°14' E 012°12'6114.8
2014-Aug-15 22:27N 57°11' E 011°33'1416.3
2014-Aug-15 21:33N 57°25' E 011°24'1616.3
2014-Aug-15 20:33N 57°40' E 011°14'1616.3
2014-Aug-15 19:33N 57°55' E 011°01'1616.2
2014-Aug-15 18:33N 58°10' E 010°50'4615.4
2014-Aug-15 15:33N 58°56' E 010°35'1313.4
2014-Aug-15 14:33N 59°09' E 010°38'1918.5
2014-Aug-15 13:33N 59°27' E 010°33'1514.8
2014-Aug-15 12:31N 59°43' E 010°35'1212.1
2014-Aug-15 11:33N 59°54' E 010°42'1 1.2
2014-Aug-15 10:33N 59°54' E 010°44'0 0.0
2014-Aug-15 09:34N 59°54' E 010°44'0 0.0
2014-Aug-15 08:34N 59°54' E 010°44'0 0.0
2014-Aug-15 07:33N 59°54' E 010°44'0 0.0
2014-Aug-15 06:34N 59°54' E 010°44'0 0.0
2014-Aug-15 05:34N 59°54' E 010°44'2211.1
2014-Aug-15 03:33N 59°32' E 010°37'1717.4
2014-Aug-15 02:33N 59°15' E 010°37'1414.0
2014-Aug-15 01:33N 59°01' E 010°34'1515.2
2014-Aug-15 00:33N 58°50' E 010°14'12715.4
2014-Aug-14 16:18N 58°01' E 006°30'1317.4
2014-Aug-14 15:33N 58°09' E 006°11'1817.7
2014-Aug-14 14:33N 58°22' E 005°47'1818.1
2014-Aug-14 13:33N 58°36' E 005°26'1615.7
2014-Aug-14 12:34N 58°52' E 005°31'1110.7
2014-Aug-14 11:33N 59°02' E 005°37'5 4.6
2014-Aug-14 10:32N 58°58' E 005°44'0 0.0
2014-Aug-14 09:32N 58°58' E 005°44'0 0.0
2014-Aug-14 08:32N 58°58' E 005°44'0 0.0
2014-Aug-14 07:32N 58°58' E 005°44'0 0.0
2014-Aug-14 06:32N 58°58' E 005°44'0 0.2
2014-Aug-14 05:33N 58°59' E 005°44'1111.5
2014-Aug-14 04:33N 59°06' E 005°27'10 9.7
2014-Aug-14 03:34N 59°02' E 005°10'86 7.5
2014-Aug-13 16:06N 60°29' E 004°60'713.3
2014-Aug-13 15:33N 60°23' E 005°10'5 4.3
2014-Aug-13 14:28N 60°24' E 005°19'0 0.0
2014-Aug-13 13:28N 60°24' E 005°19'0 0.0
2014-Aug-13 12:28N 60°24' E 005°19'0 0.0
2014-Aug-13 11:28N 60°24' E 005°19'0 0.0
2014-Aug-13 10:28N 60°24' E 005°19'0 0.0
2014-Aug-13 09:28N 60°24' E 005°19'0 0.0
2014-Aug-13 08:28N 60°24' E 005°19'0 0.0
2014-Aug-13 07:28N 60°24' E 005°19'0 0.0
2014-Aug-13 06:28N 60°24' E 005°19'0 0.0
2014-Aug-13 05:33N 60°24' E 005°19'8 7.7
2014-Aug-13 04:28N 60°26' E 005°02'  

Dump ship's entire track history